Indianapolis, IN (46242)

4:49 PM EST on December 19, 2014 (GMT -0500)
Thompson Medows | Change Station
CLOSE
Current Station
Personal Weather Station
Location: Indianapolis, IN
Elevation: 745 ft
Nearby Weather Stations

Elev 745 ft 39.69 °N, 86.26 °W | Updated 2 minutes ago

Overcast
Overcast
30.2 °F
Feels Like 30 °F
N
1.7
Wind Variable Wind from ESE

Today
High -- | Low -- °F
--% Chance of Precip.
Yesterday
High -- | Low -- °F
Precip. -- in
8:01 AM 5:23 PM
Waning Crescent, 6% visible
Pressure 30.30 in
Visibility 9.0 miles
Clouds Overcast 2600 ft
Windchill 30 °F
Dew Point 25 °F
Humidity 81%
Rainfall 0.00 in
Snow Depth Not available.
UV 0 out of 12
Pollen .10 out of 12
Air Quality Not available.
Flu Activity Not available.
METAR KIND 192054Z 25003KT 9SM OVC026 M02/M06 A3027 RMK AO2 SLP260 T10171056 55001

More Conditions Fewer Conditions

Pressure 30.30 in
Visibility 9.0 miles
Clouds Overcast 2600 ft
Windchill 30 °F
Dew Point 25 °F
Humidity 81%
Rainfall 0.00 in
Snow Depth Not available.
UV 0 out of 12
Pollen .10 out of 12
Air Quality Not available.
Flu Activity Not available.
METAR KIND 192054Z 25003KT 9SM OVC026 M02/M06 A3027 RMK AO2 SLP260 T10171056 55001

More Conditions Fewer Conditions

10-Day Weather Forecast

Almanac

Astronomy

Dec. 19, 2014 Rise Set
Actual Time
Civil Twilight
Nautical Twilight
Astronomical Twilight
Moon
Length of Visible Light
Length of Day
Tomorrow will be .
, % of the Moon is Illuminated

Today's Extremes

State Highs State Lows

Community

WunderPhotos

Upload Photos

1,779,060 photos uploaded!

WunderBlogs® & News

Nearby

Air Quality

  Air Quality AQ Index Pollutant
Not available.

Snow Depth

Station Depth Elevation

Earthquake Activity

City Distance Mag. Time & Date
Minimum magnitude displayed is 2.5.

Coastal Water Temperatures

Place Temperature

Nearby Weather Stations